Time;durP1;ratioP1;P1;durP2;ratioP2;P2;SDS_P1;SDS_P2;PMS_P1;PMS_P2;Temp;Humidity;BMP_temperature;BMP_pressure;BME280_temperature;BME280_humidity;BME280_pressure;Samples;Min_cycle;Max_cycle;Signal;HPM_P1;HPM_P2
2021/12/02 00:01:21;;;;;;;10.20;2.30;;;6.30;99.90;;;;;;5042839;28;20470;-85
2021/12/02 00:03:50;;;;;;;4.87;2.00;;;6.30;99.90;;;;;;5051300;28;20431;-87
2021/12/02 00:06:18;;;;;;;7.20;2.43;;;6.30;99.90;;;;;;5057035;28;20444;-87
2021/12/02 00:08:45;;;;;;;8.27;2.47;;;6.20;99.90;;;;;;5060678;28;20423;-85
2021/12/02 00:11:12;;;;;;;4.83;2.20;;;6.00;99.90;;;;;;5056394;28;20424;-86
2021/12/02 00:21:23;;;;;;;4.40;1.83;;;6.40;99.90;;;;;;5077510;28;20424;-87
2021/12/02 00:23:55;;;;;;;4.60;2.53;;;6.20;99.90;;;;;;5059470;28;20455;-87
2021/12/02 00:26:22;;;;;;;5.43;2.30;;;6.40;99.90;;;;;;5070562;28;20511;-87
2021/12/02 00:28:56;;;;;;;8.17;2.20;;;6.10;99.90;;;;;;5057871;28;20415;-85
2021/12/02 00:31:30;;;;;;;5.77;2.27;;;6.20;99.90;;;;;;5062959;28;20432;-86
2021/12/02 00:33:59;;;;;;;7.27;2.17;;;6.40;99.90;;;;;;5074841;28;20416;-86
2021/12/02 00:36:26;;;;;;;5.27;2.00;;;6.20;99.90;;;;;;5045943;28;20519;-86
2021/12/02 00:38:53;;;;;;;7.37;2.30;;;6.30;99.90;;;;;;5049143;28;20947;-86
2021/12/02 00:41:25;;;;;;;6.50;2.20;;;6.20;99.90;;;;;;5046032;28;21040;-85
2021/12/02 00:43:52;;;;;;;6.20;1.90;;;6.30;99.90;;;;;;5053025;28;20806;-85
2021/12/02 00:46:21;;;;;;;9.07;2.40;;;6.30;99.90;;;;;;5039120;28;20957;-85
2021/12/02 00:48:47;;;;;;;7.37;1.90;;;6.40;99.90;;;;;;5035277;28;20980;-86
2021/12/02 00:51:14;;;;;;;6.20;2.23;;;6.30;99.90;;;;;;5076542;28;20455;-86
2021/12/02 00:53:45;;;;;;;5.87;1.80;;;6.20;99.90;;;;;;5043470;28;20474;-87
2021/12/02 00:56:16;;;;;;;11.50;2.40;;;6.20;99.90;;;;;;5056050;28;20455;-87
2021/12/02 00:58:46;;;;;;;6.47;1.80;;;6.20;99.90;;;;;;5036527;28;20932;-86
2021/12/02 01:01:15;;;;;;;10.33;5.00;;;6.40;99.90;;;;;;5074870;28;20811;-86
2021/12/02 01:03:42;;;;;;;7.40;2.27;;;6.30;99.90;;;;;;5041386;28;20459;-86
2021/12/02 01:06:08;;;;;;;6.23;1.83;;;6.30;99.90;;;;;;5075503;28;20534;-86
2021/12/02 01:08:35;;;;;;;4.87;2.00;;;6.20;99.90;;;;;;5058400;28;20448;-87
2021/12/02 01:11:03;;;;;;;5.33;2.47;;;6.10;99.90;;;;;;5057692;28;20189;-87
2021/12/02 01:13:28;;;;;;;6.20;2.17;;;6.10;99.90;;;;;;5057904;28;21085;-86
2021/12/02 01:15:54;;;;;;;5.77;2.10;;;6.30;99.90;;;;;;5049166;28;20511;-85
2021/12/02 01:18:21;;;;;;;5.47;2.60;;;6.20;99.90;;;;;;5070614;28;20177;-85
2021/12/02 01:20:49;;;;;;;10.43;3.07;;;6.50;99.90;;;;;;5074692;28;20222;-86
2021/12/02 01:23:17;;;;;;;9.87;2.67;;;6.30;99.90;;;;;;5044831;28;20467;-86
2021/12/02 01:25:53;;;;;;;6.90;2.40;;;6.40;99.90;;;;;;5032370;28;20451;-86
2021/12/02 01:28:21;;;;;;;4.30;2.10;;;6.40;99.90;;;;;;5058406;28;20473;-85
2021/12/02 01:30:47;;;;;;;5.73;2.40;;;6.50;99.90;;;;;;5073944;28;20475;-85
2021/12/02 01:33:15;;;;;;;3.77;1.93;;;6.10;99.90;;;;;;5057403;28;20472;-85
2021/12/02 01:35:44;;;;;;;5.67;2.07;;;6.20;99.90;;;;;;5038436;28;20433;-85
2021/12/02 01:38:10;;;;;;;5.60;1.87;;;6.30;99.90;;;;;;5058184;28;20480;-88
2021/12/02 01:40:37;;;;;;;6.67;2.63;;;6.40;99.90;;;;;;5049396;28;20498;-87
2021/12/02 01:43:04;;;;;;;9.00;2.40;;;6.20;99.90;;;;;;5052919;28;20456;-86
2021/12/02 01:45:30;;;;;;;6.60;2.70;;;6.20;99.90;;;;;;5038386;28;20425;-86
2021/12/02 01:47:57;;;;;;;5.73;2.13;;;6.10;99.90;;;;;;5073771;28;20493;-87
2021/12/02 01:50:25;;;;;;;6.93;2.47;;;6.30;99.90;;;;;;5073526;28;20431;-85
2021/12/02 01:52:58;;;;;;;7.77;3.10;;;6.20;99.90;;;;;;5023982;28;20556;-86
2021/12/02 01:55:25;;;;;;;4.30;1.70;;;6.20;99.90;;;;;;5041299;28;20576;-85
2021/12/02 01:58:00;;;;;;;6.93;2.77;;;6.00;99.90;;;;;;5041466;28;20960;-85
2021/12/02 02:00:41;;;;;;;7.63;2.77;;;6.10;99.90;;;;;;5040517;28;20441;-85
2021/12/02 02:03:08;;;;;;;7.30;2.53;;;6.20;99.90;;;;;;5046201;28;20464;-86
2021/12/02 02:05:34;;;;;;;7.80;3.00;;;6.00;99.90;;;;;;5054916;28;20810;-86
2021/12/02 02:08:15;;;;;;;4.90;3.13;;;6.20;99.90;;;;;;5037133;28;20440;-84
2021/12/02 02:10:43;;;;;;;10.40;2.53;;;6.00;99.90;;;;;;5052642;28;20435;-87
2021/12/02 02:13:10;;;;;;;4.30;2.63;;;6.20;99.90;;;;;;5044151;28;20416;-86
2021/12/02 02:15:38;;;;;;;9.33;2.93;;;6.20;99.90;;;;;;5038275;28;20498;-85
2021/12/02 02:18:17;;;;;;;6.67;2.70;;;6.10;99.90;;;;;;5050114;28;20487;-86
2021/12/02 02:21:06;;;;;;;14.47;2.90;;;6.20;99.90;;;;;;5041932;28;20461;-84
2021/12/02 02:23:38;;;;;;;5.00;2.50;;;6.20;99.90;;;;;;5073286;28;20431;-85
2021/12/02 02:26:06;;;;;;;7.00;2.77;;;6.10;99.90;;;;;;5041510;28;20435;-87
2021/12/02 02:28:32;;;;;;;6.60;2.00;;;6.40;99.90;;;;;;5026624;28;20423;-87
2021/12/02 02:30:58;;;;;;;6.53;2.30;;;6.00;99.90;;;;;;5039953;28;21008;-85
2021/12/02 02:33:25;;;;;;;3.90;2.30;;;6.00;99.90;;;;;;5072600;28;20419;-85
2021/12/02 02:35:51;;;;;;;5.83;3.07;;;6.00;99.90;;;;;;5056301;28;20541;-85
2021/12/02 02:38:17;;;;;;;4.73;2.50;;;6.30;99.90;;;;;;5056264;28;20470;-85
2021/12/02 02:40:46;;;;;;;8.53;3.70;;;5.90;99.90;;;;;;5032193;28;20208;-86
2021/12/02 02:43:20;;;;;;;4.20;2.03;;;6.10;99.90;;;;;;5044966;28;20713;-85
2021/12/02 02:45:46;;;;;;;4.80;3.40;;;6.10;99.90;;;;;;5069018;28;20407;-87
2021/12/02 02:48:11;;;;;;;4.77;2.27;;;6.10;99.90;;;;;;5056467;28;20446;-86
2021/12/02 02:50:37;;;;;;;6.17;2.70;;;5.90;99.90;;;;;;5053031;28;20189;-85
2021/12/02 02:53:21;;;;;;;4.30;2.60;;;6.20;99.90;;;;;;5027826;28;20197;-84
2021/12/02 02:56:05;;;;;;;6.97;3.23;;;6.10;99.90;;;;;;5054742;28;21056;-86
2021/12/02 02:58:57;;;;;;;6.23;2.57;;;6.30;99.90;;;;;;5066857;28;20442;-87
2021/12/02 03:04:44;;;;;;;7.07;3.40;;;6.10;99.90;;;;;;5057094;28;20415;-85
2021/12/02 03:09:25;;;;;;;2.80;1.90;;;5.90;99.90;;;;;;5075066;28;20483;-87
2021/12/02 03:12:02;;;;;;;5.00;2.50;;;6.00;99.90;;;;;;5049258;28;20439;-85
2021/12/02 03:14:51;;;;;;;5.47;3.53;;;5.90;99.90;;;;;;5072543;28;20443;-87
2021/12/02 03:17:17;;;;;;;5.13;2.60;;;6.00;99.90;;;;;;5037864;28;20482;-87
2021/12/02 03:19:44;;;;;;;5.37;3.13;;;6.00;99.90;;;;;;5049951;28;20455;-86
2021/12/02 03:22:11;;;;;;;7.00;4.03;;;5.90;99.90;;;;;;5055544;28;20212;-85
2021/12/02 03:24:37;;;;;;;7.90;4.67;;;6.30;99.90;;;;;;5026244;28;20461;-86
2021/12/02 03:27:07;;;;;;;6.33;4.03;;;6.00;99.90;;;;;;5072448;28;20486;-85
2021/12/02 03:29:32;;;;;;;6.77;6.00;;;6.00;99.90;;;;;;5074006;28;20434;-87
2021/12/02 03:31:58;;;;;;;10.50;6.07;;;6.20;99.90;;;;;;5047836;28;20444;-86
2021/12/02 03:34:25;;;;;;;5.70;4.80;;;5.90;99.90;;;;;;5036028;28;20427;-87
2021/12/02 03:36:51;;;;;;;10.13;7.60;;;6.00;99.90;;;;;;5059922;28;20427;-87
2021/12/02 03:39:17;;;;;;;7.43;5.63;;;6.00;99.90;;;;;;5045469;28;20424;-86
2021/12/02 03:41:43;;;;;;;7.20;5.93;;;6.00;99.90;;;;;;5031608;28;20475;-85
2021/12/02 03:44:09;;;;;;;7.33;5.60;;;6.00;99.90;;;;;;5031195;28;20526;-87
2021/12/02 03:46:36;;;;;;;7.10;5.47;;;6.10;99.90;;;;;;5042527;28;20205;-87
2021/12/02 03:49:03;;;;;;;6.23;4.43;;;5.90;99.90;;;;;;5042182;28;20409;-85
2021/12/02 03:51:29;;;;;;;7.23;5.00;;;6.20;99.90;;;;;;5075829;28;20415;-85
2021/12/02 03:53:55;;;;;;;8.50;4.50;;;5.90;99.90;;;;;;5029397;28;20490;-87
2021/12/02 03:56:21;;;;;;;10.50;5.40;;;5.90;99.90;;;;;;5053731;28;20503;-85
2021/12/02 03:58:49;;;;;;;9.20;3.87;;;6.10;99.90;;;;;;5060510;28;20512;-86
2021/12/02 04:01:16;;;;;;;5.53;3.50;;;5.90;99.90;;;;;;5029089;28;20510;-87
2021/12/02 04:03:42;;;;;;;6.33;3.10;;;6.10;99.90;;;;;;5061896;28;20416;-86
2021/12/02 04:06:08;;;;;;;4.60;2.90;;;5.90;99.90;;;;;;5043091;28;20432;-85
2021/12/02 04:08:59;;;;;;;4.33;2.37;;;5.90;99.90;;;;;;5057795;28;20426;-88
2021/12/02 04:14:29;;;;;;;2.93;1.70;;;5.80;99.90;;;;;;5078840;28;20420;-84
2021/12/02 04:16:58;;;;;;;3.90;1.63;;;5.80;99.90;;;;;;5048492;28;20465;-85
2021/12/02 04:19:24;;;;;;;4.03;1.67;;;6.00;99.90;;;;;;5063620;28;20946;-88
2021/12/02 04:21:52;;;;;;;4.87;1.73;;;5.70;99.90;;;;;;5061377;28;20526;-87
2021/12/02 04:24:20;;;;;;;2.40;1.60;;;5.70;99.90;;;;;;5049729;28;20189;-86
2021/12/02 04:26:47;;;;;;;3.13;2.07;;;5.90;99.90;;;;;;5054164;28;20471;-87
2021/12/02 04:29:14;;;;;;;4.47;2.30;;;6.00;99.90;;;;;;5070370;28;20480;-88
2021/12/02 04:31:44;;;;;;;3.00;2.60;;;6.00;99.90;;;;;;5079050;28;20466;-85
2021/12/02 04:34:11;;;;;;;5.03;3.43;;;5.80;99.90;;;;;;5048861;28;20432;-86
2021/12/02 04:36:37;;;;;;;5.20;3.60;;;5.90;99.90;;;;;;5061759;28;20811;-88
2021/12/02 04:39:05;;;;;;;5.80;3.93;;;5.80;99.90;;;;;;5040801;28;20429;-86
2021/12/02 04:41:31;;;;;;;5.30;3.83;;;5.70;99.90;;;;;;5060868;28;20475;-86
2021/12/02 04:43:56;;;;;;;5.83;5.10;;;5.80;99.90;;;;;;5057120;28;20463;-86
2021/12/02 04:46:22;;;;;;;8.13;5.37;;;5.80;99.90;;;;;;5043022;28;20985;-88
2021/12/02 04:48:48;;;;;;;8.73;4.77;;;5.80;99.90;;;;;;5041356;28;20196;-88
2021/12/02 04:51:14;;;;;;;10.53;6.80;;;5.80;99.90;;;;;;5060530;28;20243;-86
2021/12/02 04:53:40;;;;;;;8.10;5.93;;;5.70;99.90;;;;;;5041871;28;20460;-86
2021/12/02 04:56:05;;;;;;;8.00;5.70;;;5.90;99.90;;;;;;5063500;28;20211;-85
2021/12/02 04:58:31;;;;;;;9.67;6.60;;;5.90;99.90;;;;;;5058432;28;20415;-87
2021/12/02 05:00:58;;;;;;;11.10;6.50;;;5.80;99.90;;;;;;5041911;28;20665;-87
2021/12/02 05:03:24;;;;;;;10.70;7.23;;;5.90;99.90;;;;;;5042849;28;20209;-87
2021/12/02 05:05:50;;;;;;;9.57;7.30;;;5.90;99.90;;;;;;5052961;28;20429;-87
2021/12/02 05:08:16;;;;;;;11.50;7.03;;;5.90;99.90;;;;;;5063369;28;20462;-86
2021/12/02 05:10:44;;;;;;;9.07;7.10;;;5.80;99.90;;;;;;5075628;28;20180;-87
2021/12/02 05:13:10;;;;;;;9.33;7.87;;;6.00;99.90;;;;;;5058102;28;20185;-88
2021/12/02 05:15:36;;;;;;;9.17;7.30;;;5.80;99.90;;;;;;5038067;28;20455;-88
2021/12/02 05:18:02;;;;;;;9.03;8.10;;;5.80;99.90;;;;;;5042035;28;20445;-87
2021/12/02 05:20:28;;;;;;;10.63;7.97;;;5.80;99.90;;;;;;5051018;28;20198;-87
2021/12/02 05:22:54;;;;;;;11.43;8.97;;;5.70;99.90;;;;;;5031366;28;20205;-87
2021/12/02 05:25:20;;;;;;;10.27;8.20;;;6.00;99.90;;;;;;5058276;28;20431;-87
2021/12/02 05:27:47;;;;;;;14.20;7.67;;;5.80;99.90;;;;;;5025880;28;20240;-87
2021/12/02 05:30:14;;;;;;;11.00;8.87;;;5.80;99.90;;;;;;5075216;28;20964;-87
2021/12/02 05:32:41;;;;;;;10.20;8.27;;;5.80;99.90;;;;;;5041979;28;20232;-86
2021/12/02 05:35:11;;;;;;;10.07;7.30;;;5.80;99.90;;;;;;5075501;28;20994;-87
2021/12/02 05:37:37;;;;;;;7.00;5.60;;;5.90;99.90;;;;;;5043826;28;20443;-87
2021/12/02 05:40:04;;;;;;;4.73;3.83;;;5.70;99.90;;;;;;5059046;28;20511;-86
2021/12/02 05:42:37;;;;;;;7.43;3.97;;;5.60;99.90;;;;;;5074835;28;20204;-86
2021/12/02 05:45:03;;;;;;;4.57;2.90;;;5.70;99.90;;;;;;5035767;28;20476;-85
2021/12/02 05:47:30;;;;;;;7.70;2.93;;;5.60;99.90;;;;;;5040220;28;20463;-85
2021/12/02 05:49:56;;;;;;;4.80;2.40;;;5.60;99.90;;;;;;5038278;28;20530;-88
2021/12/02 05:52:22;;;;;;;3.57;2.20;;;5.50;99.90;;;;;;5037682;28;20462;-86
2021/12/02 05:54:48;;;;;;;3.30;2.80;;;5.60;99.90;;;;;;5039187;28;20189;-88
2021/12/02 05:57:14;;;;;;;4.23;3.20;;;5.60;99.90;;;;;;5073484;28;20451;-87
2021/12/02 05:59:40;;;;;;;6.80;3.00;;;5.40;99.90;;;;;;5051278;28;20436;-87
2021/12/02 06:02:07;;;;;;;6.93;3.40;;;5.70;99.90;;;;;;5041773;28;20960;-88
2021/12/02 06:04:34;;;;;;;4.83;3.73;;;5.50;99.90;;;;;;5039445;28;20186;-87
2021/12/02 06:06:59;;;;;;;6.60;4.70;;;5.50;99.90;;;;;;5063903;28;21116;-85
2021/12/02 06:09:25;;;;;;;7.03;4.70;;;5.50;99.90;;;;;;5038865;28;20482;-86
2021/12/02 06:11:51;;;;;;;7.17;5.00;;;5.80;99.90;;;;;;5043490;28;20212;-87
2021/12/02 06:14:16;;;;;;;7.70;4.93;;;5.50;99.90;;;;;;5063230;28;20558;-86
2021/12/02 06:16:42;;;;;;;7.40;4.90;;;5.60;99.90;;;;;;5052529;28;20281;-81
2021/12/02 06:19:09;;;;;;;10.97;6.23;;;5.80;99.90;;;;;;5048909;28;20249;-86
2021/12/02 06:21:35;;;;;;;7.33;5.47;;;5.70;99.90;;;;;;5040305;28;20483;-86
2021/12/02 06:24:04;;;;;;;8.00;5.43;;;5.50;99.90;;;;;;5048331;28;20423;-86
2021/12/02 06:26:29;;;;;;;7.03;5.73;;;5.60;99.90;;;;;;5051476;28;20806;-85
2021/12/02 06:28:55;;;;;;;6.53;5.40;;;5.70;99.90;;;;;;5044306;28;20426;-84
2021/12/02 06:31:21;;;;;;;9.70;6.37;;;5.60;99.90;;;;;;5036500;28;20206;-85
2021/12/02 06:33:47;;;;;;;7.17;5.53;;;5.80;99.90;;;;;;5054770;28;20272;-85
2021/12/02 06:36:12;;;;;;;6.70;5.87;;;5.90;99.90;;;;;;5046775;28;20480;-85
2021/12/02 06:38:40;;;;;;;7.20;5.60;;;5.70;99.90;;;;;;5047089;28;20205;-85
2021/12/02 06:41:05;;;;;;;7.13;5.20;;;5.60;99.90;;;;;;5018149;28;20176;-84
2021/12/02 06:43:31;;;;;;;8.37;4.80;;;5.70;99.90;;;;;;5038097;28;20466;-84
2021/12/02 06:45:57;;;;;;;7.73;4.90;;;5.70;99.90;;;;;;5037198;28;20185;-84
2021/12/02 06:48:22;;;;;;;10.33;4.77;;;5.60;99.90;;;;;;5055359;28;20641;-85
2021/12/02 06:50:48;;;;;;;6.93;4.80;;;5.40;99.90;;;;;;5037011;28;20619;-83
2021/12/02 06:53:16;;;;;;;7.47;5.70;;;5.50;99.90;;;;;;5030611;28;20239;-85
2021/12/02 06:55:43;;;;;;;6.87;5.50;;;5.60;99.90;;;;;;5017177;28;20451;-84
2021/12/02 06:58:08;;;;;;;8.37;5.30;;;5.70;99.90;;;;;;5049647;28;20463;-85
2021/12/02 07:00:34;;;;;;;8.20;4.73;;;5.60;99.90;;;;;;5038561;28;20427;-83
2021/12/02 07:03:01;;;;;;;7.27;5.70;;;5.70;99.90;;;;;;5072489;28;20204;-84
2021/12/02 07:05:29;;;;;;;6.80;4.67;;;5.50;99.90;;;;;;5042743;28;20207;-83
2021/12/02 07:07:56;;;;;;;7.67;5.40;;;5.70;99.90;;;;;;5028783;28;20445;-84
2021/12/02 07:10:25;;;;;;;6.90;5.50;;;5.60;99.90;;;;;;5051827;28;20420;-86
2021/12/02 07:12:55;;;;;;;6.37;5.03;;;5.50;99.90;;;;;;5033060;28;20458;-85
2021/12/02 07:15:44;;;;;;;6.90;4.50;;;5.60;99.90;;;;;;5042273;28;20806;-84
2021/12/02 07:18:13;;;;;;;8.43;5.27;;;5.40;99.90;;;;;;5041527;28;20984;-85
2021/12/02 07:20:41;;;;;;;6.63;5.13;;;5.40;99.90;;;;;;5038980;28;20427;-84
2021/12/02 07:23:07;;;;;;;6.20;5.60;;;5.40;99.90;;;;;;5041577;28;20466;-84
2021/12/02 07:25:33;;;;;;;11.97;7.30;;;5.40;99.90;;;;;;5068746;28;20995;-86
2021/12/02 07:27:59;;;;;;;9.13;7.10;;;5.50;99.90;;;;;;5053641;28;20458;-85
2021/12/02 07:30:25;;;;;;;12.83;9.70;;;5.40;99.90;;;;;;5042736;28;20415;-85
2021/12/02 07:32:54;;;;;;;18.13;10.80;;;5.40;99.90;;;;;;5074904;28;20820;-83
2021/12/02 07:35:21;;;;;;;14.43;10.70;;;5.40;99.90;;;;;;5051022;28;20214;-85
2021/12/02 07:37:48;;;;;;;15.43;11.50;;;5.50;99.90;;;;;;5058461;28;20955;-85
2021/12/02 07:40:16;;;;;;;19.13;12.77;;;5.40;99.90;;;;;;5066693;28;20420;-85
2021/12/02 07:42:44;;;;;;;16.10;12.63;;;5.60;99.90;;;;;;5037752;28;20486;-84
2021/12/02 07:45:10;;;;;;;16.30;12.23;;;5.60;99.90;;;;;;5056386;28;20447;-83
2021/12/02 07:47:39;;;;;;;16.63;13.40;;;5.70;99.90;;;;;;5038533;28;20477;-84
2021/12/02 07:50:07;;;;;;;12.27;10.80;;;5.60;99.90;;;;;;5038574;28;20182;-85
2021/12/02 07:52:34;;;;;;;13.50;11.30;;;5.40;99.90;;;;;;5058766;28;20427;-82
2021/12/02 07:55:06;;;;;;;11.80;9.80;;;5.50;99.90;;;;;;5031282;28;20801;-84
2021/12/02 07:57:34;;;;;;;10.53;9.33;;;5.60;99.90;;;;;;5039413;28;20459;-83
2021/12/02 08:00:00;;;;;;;10.13;9.03;;;5.40;99.90;;;;;;5055150;28;20920;-84
2021/12/02 08:02:32;;;;;;;9.33;8.00;;;5.50;99.90;;;;;;5058574;28;20492;-83
2021/12/02 08:04:58;;;;;;;7.70;6.90;;;5.30;99.90;;;;;;5045686;28;20817;-85
2021/12/02 08:07:24;;;;;;;7.97;6.93;;;5.30;99.90;;;;;;5039771;28;20443;-85
2021/12/02 08:09:50;;;;;;;8.17;7.20;;;5.50;99.90;;;;;;5045239;28;20227;-85
2021/12/02 08:12:15;;;;;;;9.73;7.00;;;5.30;99.90;;;;;;5040102;28;20188;-85
2021/12/02 08:14:41;;;;;;;8.20;6.80;;;5.60;99.90;;;;;;5024989;28;20235;-84
2021/12/02 08:17:07;;;;;;;7.13;6.43;;;5.60;99.90;;;;;;5023233;28;20367;-85
2021/12/02 08:19:35;;;;;;;8.83;5.60;;;5.60;99.90;;;;;;5029274;28;20204;-84
2021/12/02 08:22:01;;;;;;;6.10;5.10;;;5.50;99.90;;;;;;5036673;28;20209;-83
2021/12/02 08:24:27;;;;;;;6.63;5.50;;;5.30;99.90;;;;;;5057113;28;20425;-85
2021/12/02 08:26:54;;;;;;;5.93;4.60;;;5.60;99.90;;;;;;5024424;28;20693;-84
2021/12/02 08:29:21;;;;;;;5.57;4.97;;;5.40;99.90;;;;;;5056200;28;20700;-85
2021/12/02 08:31:48;;;;;;;5.03;4.53;;;5.40;99.90;;;;;;5035083;28;21143;-84
2021/12/02 08:34:15;;;;;;;5.40;4.90;;;5.50;99.90;;;;;;5047511;28;20416;-85
2021/12/02 08:36:49;;;;;;;5.30;4.63;;;5.40;99.90;;;;;;5040733;28;20455;-84
2021/12/02 08:39:22;;;;;;;5.07;4.60;;;5.50;99.90;;;;;;5028792;28;20424;-84
2021/12/02 08:41:49;;;;;;;5.07;4.67;;;5.40;99.90;;;;;;5065495;28;20543;-85
2021/12/02 08:44:19;;;;;;;4.80;4.30;;;5.30;99.90;;;;;;5051412;28;20439;-85
2021/12/02 08:46:47;;;;;;;4.73;4.33;;;5.50;99.90;;;;;;5051070;28;20510;-83
2021/12/02 08:49:12;;;;;;;4.10;3.60;;;5.30;99.90;;;;;;5043843;28;20962;-83
2021/12/02 08:51:38;;;;;;;4.27;3.73;;;5.40;99.90;;;;;;5055902;28;20419;-85
2021/12/02 08:54:04;;;;;;;3.13;2.83;;;5.50;99.90;;;;;;5044424;28;20282;-85
2021/12/02 08:56:30;;;;;;;3.27;2.40;;;5.40;99.90;;;;;;5063662;28;20736;-84
2021/12/02 08:58:56;;;;;;;2.90;2.67;;;5.60;99.90;;;;;;5068626;28;20196;-85
2021/12/02 09:01:22;;;;;;;3.93;2.20;;;5.20;99.90;;;;;;5056255;28;20411;-85
2021/12/02 09:03:47;;;;;;;1.83;1.73;;;5.40;99.90;;;;;;5037060;28;20435;-85
2021/12/02 09:06:14;;;;;;;4.07;2.37;;;5.20;99.90;;;;;;5021964;28;20205;-84
2021/12/02 09:08:41;;;;;;;2.50;1.70;;;5.20;99.90;;;;;;5044071;28;20193;-85
2021/12/02 09:11:07;;;;;;;3.90;1.80;;;5.10;99.90;;;;;;5073197;28;20417;-86
2021/12/02 09:13:33;;;;;;;2.50;2.03;;;5.30;99.90;;;;;;5068260;28;20439;-86
2021/12/02 09:15:59;;;;;;;2.10;1.90;;;5.20;99.90;;;;;;5073293;28;20680;-84
2021/12/02 09:18:26;;;;;;;2.57;2.37;;;5.30;99.90;;;;;;5074945;28;20186;-85
2021/12/02 09:20:51;;;;;;;4.27;3.00;;;5.20;99.90;;;;;;5047274;28;20862;-83
2021/12/02 09:23:17;;;;;;;4.27;3.20;;;5.40;99.90;;;;;;5026278;28;20490;-83
2021/12/02 09:25:43;;;;;;;3.60;3.30;;;5.40;99.90;;;;;;5030261;28;20186;-84
2021/12/02 09:28:09;;;;;;;3.70;2.80;;;5.40;99.90;;;;;;5035983;28;20212;-83
2021/12/02 09:30:36;;;;;;;5.33;3.20;;;5.40;99.90;;;;;;5055739;28;20776;-86
2021/12/02 09:33:01;;;;;;;3.10;2.47;;;5.30;99.90;;;;;;5054757;28;20419;-85
2021/12/02 09:35:27;;;;;;;5.10;2.73;;;5.40;99.90;;;;;;5063112;28;20465;-86
2021/12/02 09:37:53;;;;;;;3.20;2.60;;;5.60;99.90;;;;;;5034859;28;20284;-85
2021/12/02 09:40:19;;;;;;;2.73;2.33;;;5.70;99.90;;;;;;5075165;28;20181;-84
2021/12/02 09:42:48;;;;;;;4.60;2.70;;;5.80;99.90;;;;;;5042072;28;20206;-85
2021/12/02 09:45:15;;;;;;;3.93;2.97;;;5.70;99.90;;;;;;5033460;28;20411;-86
2021/12/02 09:47:47;;;;;;;4.63;3.57;;;5.90;99.90;;;;;;5071587;28;20450;-84
2021/12/02 09:50:19;;;;;;;4.40;3.60;;;5.80;99.90;;;;;;5039791;28;20421;-84
2021/12/02 09:52:45;;;;;;;4.27;3.50;;;5.80;99.90;;;;;;5036668;28;20428;-85
2021/12/02 09:55:25;;;;;;;4.33;3.00;;;6.10;99.90;;;;;;5045423;28;20408;-85
2021/12/02 09:57:57;;;;;;;3.40;2.40;;;6.40;99.90;;;;;;5037698;28;20444;-83
2021/12/02 10:00:36;;;;;;;3.00;2.70;;;6.10;99.90;;;;;;5055737;28;20839;-85
2021/12/02 10:03:04;;;;;;;4.00;3.40;;;6.10;99.90;;;;;;5055770;28;20773;-83
2021/12/02 10:05:46;;;;;;;4.00;2.30;;;6.20;99.90;;;;;;5023277;28;20414;-82
2021/12/02 10:08:21;;;;;;;4.40;2.90;;;5.70;99.90;;;;;;5029696;28;20473;-85
2021/12/02 10:10:55;;;;;;;3.27;2.57;;;5.80;99.90;;;;;;5072353;28;20485;-83
2021/12/02 10:13:31;;;;;;;4.90;3.30;;;5.70;99.90;;;;;;5013008;28;20471;-85
2021/12/02 10:21:26;;;;;;;5.50;4.90;;;5.80;99.90;;;;;;5065602;28;20802;-84
2021/12/02 10:23:53;;;;;;;7.43;6.33;;;5.70;99.90;;;;;;5063697;28;20485;-84
2021/12/02 10:26:23;;;;;;;7.23;6.17;;;5.60;99.90;;;;;;5049623;28;20858;-84
2021/12/02 10:28:51;;;;;;;8.47;5.60;;;5.50;99.90;;;;;;5037561;28;20423;-85
2021/12/02 10:31:25;;;;;;;6.80;5.50;;;5.50;99.90;;;;;;5054841;28;20906;-84
2021/12/02 10:34:05;;;;;;;8.53;5.60;;;5.70;99.90;;;;;;5030867;28;20434;-85
2021/12/02 10:36:43;;;;;;;8.30;5.90;;;5.60;99.90;;;;;;5069203;28;20769;-85
2021/12/02 10:39:21;;;;;;;6.43;5.83;;;5.40;99.90;;;;;;5041677;28;20559;-85
2021/12/02 10:42:04;;;;;;;8.80;6.87;;;5.30;99.90;;;;;;5007293;28;20658;-85
2021/12/02 10:44:34;;;;;;;7.43;6.70;;;5.40;99.90;;;;;;5047710;28;21037;-85
2021/12/02 10:47:11;;;;;;;7.50;6.70;;;5.30;99.90;;;;;;5038875;28;20807;-84
2021/12/02 10:49:45;;;;;;;9.07;7.60;;;5.40;99.90;;;;;;5055195;28;20517;-85
2021/12/02 10:52:24;;;;;;;8.20;7.33;;;5.10;99.90;;;;;;5031979;28;20502;-84
2021/12/02 10:55:04;;;;;;;8.47;6.30;;;5.20;99.90;;;;;;5040436;28;20518;-84
2021/12/02 10:57:33;;;;;;;6.67;5.87;;;5.40;99.90;;;;;;5041536;28;20455;-85
2021/12/02 11:00:00;;;;;;;8.37;6.40;;;5.50;99.90;;;;;;5037136;28;20446;-85
2021/12/02 11:02:36;;;;;;;7.93;5.90;;;5.30;99.90;;;;;;5030022;28;20451;-84
2021/12/02 11:05:10;;;;;;;8.43;5.13;;;5.30;99.90;;;;;;5055118;28;20928;-84
2021/12/02 11:07:39;;;;;;;5.60;5.00;;;5.30;99.90;;;;;;5037674;28;20498;-86
2021/12/02 11:10:12;;;;;;;6.53;4.70;;;5.40;99.90;;;;;;5065207;28;20424;-85
2021/12/02 11:12:41;;;;;;;6.27;4.67;;;5.30;99.90;;;;;;5051635;28;20466;-84
2021/12/02 11:15:19;;;;;;;6.40;4.50;;;5.40;99.90;;;;;;5033988;28;20439;-84
2021/12/02 11:17:53;;;;;;;3.63;3.30;;;5.30;99.90;;;;;;5036662;28;20526;-85
2021/12/02 11:20:28;;;;;;;6.10;2.77;;;5.40;99.90;;;;;;5055514;28;20427;-85
2021/12/02 11:23:08;;;;;;;3.20;2.90;;;5.50;99.90;;;;;;5071133;28;20557;-84
2021/12/02 11:25:40;;;;;;;5.23;3.30;;;5.50;99.90;;;;;;5058860;28;20419;-85
2021/12/02 11:28:08;;;;;;;4.23;2.80;;;5.60;99.90;;;;;;5041746;28;20440;-85
2021/12/02 11:30:36;;;;;;;4.90;2.83;;;5.20;99.90;;;;;;5036809;28;20526;-84
2021/12/02 11:33:07;;;;;;;4.20;2.73;;;5.40;99.90;;;;;;5053873;28;20655;-84
2021/12/02 11:35:41;;;;;;;5.03;3.47;;;5.40;99.90;;;;;;5045567;28;20936;-84
2021/12/02 11:38:21;;;;;;;4.13;3.40;;;5.40;99.90;;;;;;5048100;28;20460;-84
2021/12/02 11:40:54;;;;;;;4.57;3.53;;;5.70;99.90;;;;;;5055244;28;20422;-85
2021/12/02 11:43:25;;;;;;;5.90;4.00;;;5.70;99.90;;;;;;5070502;28;20458;-84
2021/12/02 11:45:51;;;;;;;5.07;4.57;;;5.70;99.90;;;;;;5037192;28;20419;-83
2021/12/02 11:48:24;;;;;;;6.20;5.23;;;5.70;99.90;;;;;;5052716;28;20415;-85
2021/12/02 11:50:54;;;;;;;7.30;5.70;;;5.70;99.90;;;;;;5040814;28;20419;-85
2021/12/02 11:53:22;;;;;;;8.40;6.30;;;5.60;99.90;;;;;;5028302;28;20535;-85
2021/12/02 11:56:01;;;;;;;7.80;6.43;;;5.70;99.90;;;;;;5054350;28;20427;-87
2021/12/02 11:58:27;;;;;;;9.03;7.27;;;5.60;99.90;;;;;;5046459;28;20531;-85
2021/12/02 12:00:55;;;;;;;8.37;6.80;;;5.60;99.90;;;;;;5041213;28;20422;-85
2021/12/02 12:03:33;;;;;;;10.70;8.10;;;5.40;99.90;;;;;;5034887;28;20483;-86
2021/12/02 12:06:02;;;;;;;8.27;7.40;;;5.60;99.90;;;;;;5064186;28;20419;-85
2021/12/02 12:08:45;;;;;;;9.53;7.70;;;5.50;99.90;;;;;;5038679;28;20739;-85
2021/12/02 12:11:29;;;;;;;8.27;7.47;;;5.50;99.90;;;;;;5032927;28;20417;-84
2021/12/02 12:14:05;;;;;;;10.40;7.57;;;5.40;99.90;;;;;;5057062;28;20427;-87
2021/12/02 12:16:41;;;;;;;10.13;7.60;;;5.30;99.90;;;;;;5050265;28;20446;-83
2021/12/02 12:19:31;;;;;;;9.17;6.60;;;5.40;99.90;;;;;;5061466;28;20908;-83
2021/12/02 12:22:28;;;;;;;5.73;5.17;;;5.30;99.90;;;;;;5041106;28;21005;-85
2021/12/02 12:24:57;;;;;;;4.80;3.67;;;5.30;99.90;;;;;;5027815;28;20418;-83
2021/12/02 12:27:37;;;;;;;5.50;3.20;;;5.40;99.90;;;;;;5041212;28;20524;-87
2021/12/02 12:30:08;;;;;;;3.53;2.90;;;5.60;99.90;;;;;;5058881;28;20435;-83
2021/12/02 12:33:08;;;;;;;3.27;2.97;;;5.70;99.90;;;;;;5058900;28;20435;-88
2021/12/02 12:36:13;;;;;;;3.43;2.80;;;5.60;99.90;;;;;;5052469;28;20423;-85
2021/12/02 12:38:42;;;;;;;4.70;2.80;;;5.70;99.90;;;;;;5060874;28;20458;-87
2021/12/02 12:41:15;;;;;;;4.43;3.17;;;5.80;99.90;;;;;;5029310;28;20489;-84
2021/12/02 12:43:54;;;;;;;3.90;2.47;;;5.80;99.90;;;;;;5055460;28;20697;-87
2021/12/02 12:46:25;;;;;;;2.60;2.40;;;5.70;99.90;;;;;;5044259;28;20439;-87
2021/12/02 12:48:53;;;;;;;3.30;3.00;;;5.70;99.90;;;;;;5054030;28;20419;-84
2021/12/02 12:51:31;;;;;;;2.40;2.20;;;5.40;99.90;;;;;;5031225;28;20431;-86
2021/12/02 12:53:57;;;;;;;2.60;2.40;;;5.60;99.90;;;;;;5069067;28;20419;-86
2021/12/02 12:56:30;;;;;;;4.70;2.30;;;5.20;99.90;;;;;;5065821;28;20827;-85
2021/12/02 12:59:05;;;;;;;3.53;2.37;;;5.30;99.90;;;;;;5065290;28;20421;-84
2021/12/02 13:01:32;;;;;;;2.30;1.97;;;5.60;99.90;;;;;;5084195;28;20970;-85
2021/12/02 13:04:08;;;;;;;2.60;2.00;;;5.50;99.90;;;;;;5069288;28;20487;-86
2021/12/02 13:06:54;;;;;;;2.37;2.07;;;5.40;99.90;;;;;;5065767;28;20794;-84
2021/12/02 13:12:20;;;;;;;2.30;1.90;;;5.40;99.90;;;;;;5061492;28;20416;-85
2021/12/02 13:14:49;;;;;;;4.43;2.80;;;5.50;99.90;;;;;;5053002;28;20442;-85
2021/12/02 13:17:34;;;;;;;3.83;1.90;;;5.50;99.90;;;;;;5043212;28;20439;-83
2021/12/02 13:20:00;;;;;;;2.60;2.17;;;5.70;99.90;;;;;;5039563;28;20423;-83
2021/12/02 13:22:26;;;;;;;2.87;2.03;;;5.50;99.90;;;;;;5032293;28;20930;-84
2021/12/02 13:24:51;;;;;;;3.83;1.83;;;5.50;99.90;;;;;;5057662;28;20486;-85
2021/12/02 13:27:21;;;;;;;3.40;2.00;;;5.50;99.90;;;;;;5032897;28;20204;-84
2021/12/02 13:29:47;;;;;;;2.30;2.10;;;5.40;99.90;;;;;;5036547;28;20551;-83
2021/12/02 13:32:13;;;;;;;5.67;2.63;;;5.70;99.90;;;;;;5024613;28;20447;-83